createdAt,value
2017-06-13T06:23:42.219Z,73.16
2017-06-13T06:24:22.807Z,73.35
2017-06-13T06:25:03.385Z,73.35
2017-06-13T06:25:43.951Z,73.07
2017-06-13T06:26:24.571Z,73.45
2017-06-13T06:27:05.146Z,73.55
2017-06-13T06:27:45.819Z,72.94
2017-06-13T06:28:26.410Z,72.97
2017-06-13T06:29:06.990Z,72.84
2017-06-13T06:29:47.691Z,72.97
2017-06-13T06:30:28.301Z,73.03
2017-06-13T06:31:08.924Z,73.16
2017-06-13T06:31:49.500Z,73.07
2017-06-13T06:32:30.152Z,72.68
2017-06-13T06:33:10.791Z,72.74
2017-06-13T06:33:51.456Z,72.68
2017-06-13T06:34:32.085Z,72.55
2017-06-13T06:35:12.759Z,72.39
2017-06-13T06:35:53.420Z,72.68
2017-06-13T06:36:34.059Z,72.3
2017-06-13T06:37:14.756Z,72.39
2017-06-13T06:37:56.479Z,72.3
2017-06-13T06:38:37.149Z,72.11
2017-06-13T06:39:18.405Z,72.01
2017-06-13T06:39:59.074Z,71.72
2017-06-13T06:40:39.723Z,72.01
2017-06-13T06:41:20.377Z,71.34
2017-06-13T06:42:01.035Z,71.53
2017-06-13T06:42:41.683Z,71.44
2017-06-13T06:43:23.199Z,71.05
2017-06-13T06:44:04.427Z,70.86
2017-06-13T06:44:45.059Z,70.96
2017-06-13T06:45:25.749Z,70.99
2017-06-13T06:46:06.386Z,70.42
2017-06-13T06:46:47.039Z,70.99
2017-06-13T06:47:27.711Z,70.03
2017-06-13T06:48:08.340Z,70.23
2017-06-13T06:48:49.014Z,69.56
2017-06-13T06:49:29.650Z,69.11
2017-06-13T06:50:10.272Z,69.3
2017-06-13T06:50:50.887Z,69.2
2017-06-13T06:51:31.507Z,68.73
2017-06-13T06:52:13.165Z,68.63
2017-06-13T06:52:53.734Z,68.82
2017-06-13T06:53:34.393Z,68.63
2017-06-13T06:54:15.022Z,68.44
2017-06-13T06:54:55.675Z,68.63
2017-06-13T06:55:36.319Z,69.01
2017-06-13T06:56:16.979Z,69.11
2017-06-13T06:56:57.630Z,68.73
2017-06-13T06:57:38.293Z,68.82
2017-06-13T06:58:18.938Z,68.73
2017-06-13T06:58:59.594Z,68.91
2017-06-13T06:59:40.158Z,68.82
2017-06-13T07:00:20.791Z,68.91
2017-06-13T07:01:01.488Z,68.3
2017-06-13T07:01:42.115Z,68.5
2017-06-13T07:02:22.755Z,68.21
2017-06-13T07:03:03.407Z,68.34
2017-06-13T07:03:44.060Z,68.15
2017-06-13T07:04:24.612Z,68.15
2017-06-13T07:05:05.297Z,68.15
2017-06-13T07:05:45.949Z,67.86
2017-06-13T07:06:26.621Z,68.34
2017-06-13T07:07:07.294Z,68.24
2017-06-13T07:07:47.878Z,68.15
2017-06-13T07:08:28.484Z,68.44
2017-06-13T07:09:09.097Z,68.05
2017-06-13T07:09:49.749Z,68.34
2017-06-13T07:10:30.409Z,68.24
2017-06-13T07:11:11.053Z,68.63
2017-06-13T07:11:51.828Z,68.63
2017-06-13T07:12:32.460Z,68.24
2017-06-13T07:13:13.140Z,68.24
2017-06-13T07:13:53.851Z,68.34
2017-06-13T07:14:34.420Z,67.96
2017-06-13T07:15:15.093Z,68.24
2017-06-13T07:15:55.700Z,68.05
2017-06-13T07:16:36.351Z,67.86
2017-06-13T07:17:17.053Z,67.96
2017-06-13T07:17:57.728Z,67.96
2017-06-13T07:18:44.066Z,67.7
2017-06-13T07:19:25.749Z,67.32
2017-06-13T07:20:06.425Z,67.38
2017-06-13T07:20:47.088Z,67.8
2017-06-13T07:21:28.754Z,67.51
2017-06-13T07:22:09.917Z,67.51
2017-06-13T07:22:50.588Z,67.22
2017-06-13T07:23:32.239Z,67.03
2017-06-13T07:24:12.837Z,66.55
2017-06-13T07:24:53.576Z,66.26
2017-06-13T07:25:34.180Z,66.36
2017-06-13T07:26:14.837Z,65.97
2017-06-13T07:26:55.422Z,65.4
2017-06-13T07:27:36.045Z,65.53
2017-06-13T07:28:16.627Z,64.95
2017-06-13T07:28:57.280Z,65.14
2017-06-13T07:29:38.932Z,65.05
2017-06-13T07:30:19.578Z,64.47
2017-06-13T07:31:00.144Z,64.56
2017-06-13T07:31:40.710Z,64.4
2017-06-13T07:32:21.350Z,63.92
2017-06-13T07:33:01.946Z,63.73
2017-06-13T07:33:42.590Z,63.73
2017-06-13T07:34:23.146Z,63.6
2017-06-13T07:35:03.716Z,63.7
2017-06-13T07:35:44.320Z,63.7
2017-06-13T07:36:24.972Z,63.6
2017-06-13T07:37:05.933Z,63.6
2017-06-13T07:37:46.719Z,63.7
2017-06-13T07:38:27.874Z,63.48
2017-06-13T07:39:08.506Z,63.38
2017-06-13T07:39:49.148Z,63.57
2017-06-13T07:40:29.791Z,63.28
2017-06-13T07:41:10.443Z,62.99
2017-06-13T07:41:51.089Z,62.32
2017-06-13T07:42:31.759Z,62.42
2017-06-13T07:43:12.522Z,62.26
2017-06-13T07:43:53.204Z,61.97
2017-06-13T07:44:33.825Z,62.16
2017-06-13T07:45:14.521Z,62.07
2017-06-13T07:45:55.115Z,62.23
2017-06-13T07:46:35.791Z,62.23
2017-06-13T07:47:16.542Z,61.94
2017-06-13T07:47:57.182Z,61.94
2017-06-13T07:48:37.862Z,61.94
2017-06-13T07:49:18.647Z,62.42
2017-06-13T07:49:59.388Z,62.71
2017-06-13T07:50:40.078Z,62.61
2017-06-13T07:51:20.757Z,62.71
2017-06-13T07:52:01.367Z,62.81
2017-06-13T07:52:42.986Z,62.04
2017-06-13T07:53:23.571Z,62.04
2017-06-13T07:54:04.144Z,61.87
2017-06-13T07:54:44.804Z,61.58
2017-06-13T07:55:25.438Z,61.3
2017-06-13T07:56:06.000Z,61.01
2017-06-13T07:56:46.765Z,61.01
2017-06-13T07:57:27.393Z,60.94
2017-06-13T07:58:07.967Z,60.94
2017-06-13T07:58:48.619Z,61.04
2017-06-13T07:59:29.999Z,60.85
2017-06-13T08:00:11.698Z,60.46
2017-06-13T08:00:52.302Z,60.85
2017-06-13T08:01:32.941Z,60.75
2017-06-13T08:02:13.604Z,60.56
2017-06-13T08:02:54.257Z,60.34
2017-06-13T08:03:35.011Z,60.53
2017-06-13T08:04:15.669Z,60.53
2017-06-13T08:04:57.410Z,60.24
2017-06-13T08:05:38.010Z,60.08
2017-06-13T08:06:18.695Z,60.27
2017-06-13T08:06:59.356Z,59.99
2017-06-13T08:07:39.989Z,59.6
2017-06-13T08:08:20.638Z,59.22
2017-06-13T08:09:01.257Z,59.02
2017-06-13T08:09:41.947Z,58.92
2017-06-13T08:10:22.511Z,58.83
2017-06-13T08:11:03.138Z,58.83
2017-06-13T08:11:43.793Z,58.92
2017-06-13T08:12:24.498Z,58.54
2017-06-13T08:13:05.108Z,58.83
2017-06-13T08:13:45.689Z,58.83
2017-06-13T08:14:26.324Z,58.92
2017-06-13T08:15:06.899Z,58.73
2017-06-13T08:15:47.575Z,58.73
2017-06-13T08:16:28.136Z,58.92
2017-06-13T08:17:08.792Z,58.35
2017-06-13T08:17:49.358Z,58.45
2017-06-13T08:18:30.019Z,58.25
2017-06-13T08:19:10.675Z,58.64
2017-06-13T08:19:51.238Z,57.77
2017-06-13T08:20:31.821Z,58.15
2017-06-13T08:21:12.403Z,58.25
2017-06-13T08:21:52.997Z,57.68
2017-06-13T08:22:33.573Z,57.6
2017-06-13T08:23:14.188Z,57.42
2017-06-13T08:23:54.836Z,56.74
2017-06-13T08:24:35.398Z,56.26
2017-06-13T08:25:15.980Z,56
2017-06-13T08:25:56.578Z,56.2
2017-06-13T08:26:37.256Z,55.43
2017-06-13T08:27:17.941Z,55.23
2017-06-13T08:27:59.621Z,55.71
2017-06-13T08:28:40.187Z,55.88
2017-06-13T08:29:20.765Z,55.68
2017-06-13T08:30:01.345Z,56.26
2017-06-13T08:30:41.976Z,56.1
2017-06-13T08:31:22.555Z,56
2017-06-13T08:32:03.238Z,56.26
2017-06-13T08:32:44.976Z,56.84
2017-06-13T08:33:25.528Z,56.74
2017-06-13T08:34:06.183Z,57.51
2017-06-13T08:34:46.875Z,57.68
2017-06-13T08:35:27.611Z,57.68
2017-06-13T08:36:08.175Z,58.25
2017-06-13T08:36:48.783Z,58.06
2017-06-13T08:37:29.426Z,58.54
2017-06-13T08:38:10.104Z,58.35
2017-06-13T08:38:50.748Z,58.35
2017-06-13T08:39:31.411Z,58.45
2017-06-13T08:40:12.205Z,58.54
2017-06-13T08:40:52.783Z,58.18
2017-06-13T08:41:33.355Z,58.09
2017-06-13T08:42:14.010Z,58.09
2017-06-13T08:42:54.599Z,57.6
2017-06-13T08:43:42.152Z,57.22
2017-06-13T08:44:22.731Z,57.03
2017-06-13T08:45:03.290Z,56.77
2017-06-13T08:45:43.958Z,56
2017-06-13T08:46:24.581Z,55.81
2017-06-13T08:47:05.151Z,55.62
2017-06-13T08:47:45.795Z,55.71
2017-06-13T08:48:26.401Z,55.71
2017-06-13T08:49:06.976Z,55.16
2017-06-13T08:49:47.553Z,55.16
2017-06-13T08:50:28.191Z,54.68
2017-06-13T08:51:08.814Z,54
2017-06-13T08:51:49.385Z,54
2017-06-13T08:52:29.943Z,53.62
2017-06-13T08:53:10.599Z,53.23
2017-06-13T08:53:51.253Z,53.43
2017-06-13T08:54:32.839Z,53.33
2017-06-13T08:55:14.672Z,52.85
2017-06-13T08:55:55.341Z,52.75
2017-06-13T08:56:35.903Z,53.53
2017-06-13T08:57:16.488Z,53.14
2017-06-13T08:57:57.106Z,53.53
2017-06-13T08:58:37.788Z,53.53
2017-06-13T08:59:18.398Z,53.69
2017-06-13T08:59:59.054Z,53.88
2017-06-13T09:00:39.724Z,53.78
2017-06-13T09:01:20.397Z,53.69
2017-06-13T09:02:01.032Z,54.08
2017-06-13T09:02:41.683Z,54.27
2017-06-13T09:03:23.370Z,54.27
2017-06-13T09:04:03.965Z,54.17
2017-06-13T09:04:44.564Z,54.08
2017-06-13T09:05:25.259Z,53.78
2017-06-13T09:06:05.946Z,53.31
2017-06-13T09:06:46.512Z,53.43
2017-06-13T09:07:27.086Z,53.05
2017-06-13T09:08:07.764Z,53.14
2017-06-13T09:08:51.802Z,52.37
2017-06-13T09:09:32.679Z,52.2
2017-06-13T09:10:14.319Z,51.92
2017-06-13T09:10:54.923Z,52.3
2017-06-13T09:11:35.576Z,52.2
2017-06-13T09:12:16.219Z,52.18
2017-06-13T09:12:56.876Z,52.47
2017-06-13T09:13:37.536Z,52.47
2017-06-13T09:14:18.182Z,52.66
2017-06-13T09:14:59.859Z,52.37
2017-06-13T09:15:40.508Z,52.85
2017-06-13T09:16:25.702Z,53.05
2017-06-13T09:17:11.241Z,53.59
2017-06-13T09:17:51.906Z,53.59
2017-06-13T09:18:32.564Z,53.69
2017-06-13T09:19:13.201Z,53.96
2017-06-13T09:19:53.847Z,54.53
2017-06-13T09:20:34.522Z,54.53
2017-06-13T09:21:15.278Z,54.89
2017-06-13T09:21:55.879Z,55.08
2017-06-13T09:22:36.612Z,55.08
2017-06-13T09:23:17.234Z,55.56
2017-06-13T09:23:57.908Z,55.63
2017-06-13T09:24:38.467Z,56.21
2017-06-13T09:25:19.114Z,55.91
2017-06-13T09:25:59.768Z,56.11
2017-06-13T09:26:40.422Z,56.4
2017-06-13T09:27:21.006Z,56.21
2017-06-13T09:28:01.593Z,56.21
2017-06-13T09:28:42.264Z,56.68
2017-06-13T09:29:22.823Z,56.4
2017-06-13T09:30:03.408Z,56.98
2017-06-13T09:30:44.009Z,56.49
2017-06-13T09:31:24.590Z,57.17
2017-06-13T09:32:05.209Z,56.68
2017-06-13T09:32:45.791Z,56.68
2017-06-13T09:33:26.366Z,56.49
2017-06-13T09:34:06.918Z,56.4
2017-06-13T09:34:47.578Z,56.3
2017-06-13T09:35:28.186Z,56.01
2017-06-13T09:36:08.873Z,56.21
2017-06-13T09:36:49.459Z,55.53
2017-06-13T09:37:30.042Z,55.76
2017-06-13T09:38:10.621Z,55.37
2017-06-13T09:38:52.195Z,54.89
2017-06-13T09:39:33.940Z,54.6
2017-06-13T09:40:14.536Z,54.34
2017-06-13T09:40:56.211Z,54.14
2017-06-13T09:41:38.799Z,53.76
2017-06-13T09:42:19.372Z,53.66
2017-06-13T09:42:59.971Z,53.38
2017-06-13T09:43:40.552Z,53.28
2017-06-13T09:44:23.185Z,53.11
2017-06-13T09:45:03.936Z,52.83
2017-06-13T09:45:44.530Z,52.83
2017-06-13T09:46:25.092Z,52.44
2017-06-13T09:47:07.678Z,52.34
2017-06-13T09:47:50.378Z,51.98
2017-06-13T09:48:31.954Z,52.27
2017-06-13T09:49:12.531Z,52.27
2017-06-13T09:49:58.957Z,51.79
2017-06-13T09:50:39.574Z,51.05
2017-06-13T09:51:20.182Z,50.95
2017-06-13T09:52:00.753Z,50.85
2017-06-13T09:52:41.318Z,50.27
2017-06-13T09:53:22.900Z,50.18
2017-06-13T09:54:05.469Z,50.66
2017-06-13T09:54:46.027Z,50.09
2017-06-13T09:55:27.611Z,50.18
2017-06-13T09:56:08.188Z,49.7
2017-06-13T09:56:48.765Z,49.53
2017-06-13T09:57:30.356Z,50.01
2017-06-13T09:58:10.927Z,49.53
2017-06-13T09:58:51.520Z,49.24
2017-06-13T09:59:32.076Z,48.86
2017-06-13T10:00:13.665Z,48.86
2017-06-13T10:00:55.243Z,48.86
2017-06-13T10:01:36.816Z,48.86
2017-06-13T10:02:17.394Z,48.86
2017-06-13T10:02:58.068Z,49.34
2017-06-13T10:03:38.671Z,49.05
2017-06-13T10:04:19.265Z,49.05
2017-06-13T10:04:59.817Z,48.86
2017-06-13T10:05:40.404Z,48.88
2017-06-13T10:06:20.972Z,49.07
2017-06-13T10:07:01.571Z,49.07
2017-06-13T10:07:42.114Z,48.88
2017-06-13T10:08:22.690Z,48.4
2017-06-13T10:09:03.261Z,48.42
2017-06-13T10:09:45.854Z,48.33
2017-06-13T10:10:26.407Z,48.42
2017-06-13T10:11:07.010Z,48.71
2017-06-13T10:11:47.600Z,48.9
2017-06-13T10:12:28.191Z,48.81
2017-06-13T10:13:08.796Z,48.69
2017-06-13T10:13:49.421Z,48.88
2017-06-13T10:14:29.999Z,49.17
2017-06-13T10:15:10.566Z,48.79
2017-06-13T10:15:51.191Z,49.07
2017-06-13T10:16:32.790Z,48.79
2017-06-13T10:17:13.373Z,48.69
2017-06-13T10:17:53.942Z,49.07
2017-06-13T10:18:34.528Z,48.4
2017-06-13T10:19:16.106Z,48.13
2017-06-13T10:19:57.651Z,47.85
2017-06-13T10:20:39.224Z,48.23
2017-06-13T10:21:19.821Z,47.94
2017-06-13T10:22:00.397Z,48.03
2017-06-13T10:22:41.979Z,48.23
2017-06-13T10:23:22.551Z,47.75
2017-06-13T10:24:04.165Z,47.45
2017-06-13T10:24:44.752Z,47.45
2017-06-13T10:25:26.325Z,47.27
2017-06-13T10:26:07.010Z,46.88
2017-06-13T10:26:47.555Z,46.49
2017-06-13T10:27:28.130Z,46.51
2017-06-13T10:28:08.816Z,45.94
2017-06-13T10:28:50.453Z,46.13
2017-06-13T10:29:31.025Z,45.67
2017-06-13T10:30:11.638Z,45.48
2017-06-13T10:30:52.255Z,45.28
2017-06-13T10:31:32.871Z,44.63
2017-06-13T10:32:13.508Z,44.53
2017-06-13T10:32:54.103Z,44.43
2017-06-13T10:33:34.702Z,44.73
2017-06-13T10:34:16.370Z,44.24
2017-06-13T10:34:56.931Z,44.15
2017-06-13T10:35:37.493Z,44.15
2017-06-13T10:36:18.083Z,44.6
2017-06-13T10:37:00.726Z,44.51
2017-06-13T10:37:41.325Z,45.36
2017-06-13T10:38:21.906Z,45.17
2017-06-13T10:39:02.473Z,45.36
2017-06-13T10:39:43.060Z,45.36
2017-06-13T10:40:23.754Z,45.75
2017-06-13T10:41:04.314Z,46.01
2017-06-13T10:41:44.883Z,46.49
2017-06-13T10:42:27.484Z,46.18
2017-06-13T10:43:08.033Z,46.66
2017-06-13T10:43:48.612Z,46.95
2017-06-13T10:44:30.164Z,47.34
2017-06-13T10:45:10.753Z,47.14
2017-06-13T10:45:51.336Z,48.08
2017-06-13T10:46:32.933Z,48.18
2017-06-13T10:47:13.499Z,48.18
2017-06-13T10:47:54.087Z,48.86
2017-06-13T10:48:34.643Z,49.12
2017-06-13T10:49:15.213Z,48.93
2017-06-13T10:49:55.827Z,49.6
2017-06-13T10:50:36.490Z,49.58
2017-06-13T10:51:17.049Z,49.87
2017-06-13T10:51:57.658Z,50.54
2017-06-13T10:52:38.226Z,50.23
2017-06-13T10:53:18.782Z,50.42
2017-06-13T10:53:59.425Z,50.61
2017-06-13T10:54:40.007Z,50.71
2017-06-13T10:55:20.582Z,50.61
2017-06-13T10:56:01.161Z,50.42
2017-06-13T10:56:41.810Z,50.61
2017-06-13T10:57:22.445Z,50.42
2017-06-13T10:58:03.098Z,50.42
2017-06-13T10:58:43.753Z,50.51
2017-06-13T10:59:31.263Z,50.23
2017-06-13T11:00:11.842Z,50.13
2017-06-13T11:00:52.492Z,50.23
2017-06-13T11:01:33.123Z,50.32
2017-06-13T11:02:13.685Z,50.45
2017-06-13T11:02:55.366Z,50.35
2017-06-13T11:03:36.004Z,50.06
2017-06-13T11:04:16.577Z,49.77
2017-06-13T11:04:58.249Z,49.89
2017-06-13T11:05:41.851Z,49.6
2017-06-13T11:06:22.414Z,49.6
2017-06-13T11:07:03.082Z,49.51
2017-06-13T11:07:43.669Z,48.83
2017-06-13T11:08:24.271Z,49.15
2017-06-13T11:09:04.861Z,48.76
2017-06-13T11:09:45.476Z,48.28
2017-06-13T11:10:26.119Z,48.08
2017-06-13T11:11:06.712Z,48.21
2017-06-13T11:11:47.295Z,47.34
2017-06-13T11:12:27.903Z,47.14
2017-06-13T11:13:09.513Z,46.69
2017-06-13T11:13:52.191Z,46.69
2017-06-13T11:14:32.766Z,46.4
2017-06-13T11:15:13.363Z,46.01
2017-06-13T11:15:54.009Z,46.42
2017-06-13T11:16:34.572Z,46.03
2017-06-13T11:17:15.229Z,45.84
2017-06-13T11:17:55.811Z,45.75
2017-06-13T11:18:36.408Z,45.75
2017-06-13T11:19:17.034Z,45.55
2017-06-13T11:19:57.764Z,45.26
2017-06-13T11:20:38.338Z,45.26
2017-06-13T11:21:18.995Z,45.65
2017-06-13T11:21:59.614Z,45.17
2017-06-13T11:22:40.175Z,44.87
2017-06-13T11:23:20.765Z,44.8
2017-06-13T11:24:01.356Z,44.32
2017-06-13T11:24:41.945Z,44.51
2017-06-13T11:25:22.571Z,44.51
2017-06-13T11:26:03.115Z,44.22
2017-06-13T11:26:43.720Z,43.85
2017-06-13T11:27:24.303Z,43.76
2017-06-13T11:28:05.497Z,43.47
2017-06-13T11:28:46.785Z,43.28
2017-06-13T11:29:27.460Z,43.28
2017-06-13T11:30:07.943Z,43.37
2017-06-13T11:30:49.511Z,43.47
2017-06-13T11:31:30.096Z,43.57
2017-06-13T11:32:10.681Z,43.37
2017-06-13T11:32:51.234Z,43.18
2017-06-13T11:33:31.812Z,43.47
2017-06-13T11:34:12.374Z,43.93
2017-06-13T11:34:52.948Z,44.03
2017-06-13T11:35:33.519Z,44.22
2017-06-13T11:36:14.106Z,44.32
2017-06-13T11:36:54.739Z,44.51
2017-06-13T11:37:35.324Z,44.42
2017-06-13T11:38:15.911Z,44.51
2017-06-13T11:38:56.471Z,44.32
2017-06-13T11:39:37.064Z,44.03
2017-06-13T11:40:17.647Z,44.22
2017-06-13T11:40:58.217Z,43.84
2017-06-13T11:41:38.783Z,44.03
2017-06-13T11:42:19.367Z,43.93
2017-06-13T11:43:00.570Z,44.05
2017-06-13T11:43:41.202Z,43.57
2017-06-13T11:44:21.894Z,43.47
2017-06-13T11:45:02.481Z,43.57
2017-06-13T11:45:43.120Z,43.37
2017-06-13T11:46:23.698Z,44.24
2017-06-13T11:47:04.361Z,43.85
2017-06-13T11:47:44.956Z,43.95
2017-06-13T11:48:25.515Z,43.57
2017-06-13T11:49:06.179Z,43.95
2017-06-13T11:49:46.867Z,43.57
2017-06-13T11:50:27.462Z,44.24
2017-06-13T11:51:08.116Z,43.57
2017-06-13T11:51:48.784Z,43.47
2017-06-13T11:52:29.446Z,43.18
2017-06-13T11:53:10.075Z,44.05
2017-06-13T11:53:50.724Z,43.84
2017-06-13T11:54:31.379Z,44.03
2017-06-13T11:55:11.984Z,44.22
2017-06-13T11:55:52.635Z,44.39
2017-06-13T11:56:33.286Z,44.01
2017-06-13T11:57:13.936Z,44.39
2017-06-13T11:57:54.577Z,45.07
2017-06-13T11:58:35.215Z,44.59
2017-06-13T11:59:15.897Z,44.59
2017-06-13T11:59:56.559Z,44.66
2017-06-13T12:00:37.192Z,45.24
2017-06-13T12:01:17.842Z,45.53
2017-06-13T12:01:58.482Z,45.34
2017-06-13T12:02:39.159Z,45.62
2017-06-13T12:03:19.837Z,45.82
2017-06-13T12:04:00.436Z,46.11
2017-06-13T12:04:41.096Z,45.79
2017-06-13T12:05:21.753Z,45.99
2017-06-13T12:06:02.384Z,45.99
2017-06-13T12:06:43.062Z,46.18
2017-06-13T12:07:23.705Z,46.95
2017-06-13T12:08:04.351Z,46.95
2017-06-13T12:08:45.018Z,47.44
2017-06-13T12:09:25.679Z,47.31
2017-06-13T12:10:06.323Z,47.31
2017-06-13T12:10:46.971Z,47.7
2017-06-13T12:11:27.655Z,48.16
2017-06-13T12:12:08.295Z,48.16
2017-06-13T12:12:48.937Z,49.02
2017-06-13T12:13:29.574Z,48.83
2017-06-13T12:14:10.243Z,48.74
2017-06-13T12:14:50.920Z,48.83
2017-06-13T12:15:31.575Z,48.74
2017-06-13T12:16:12.186Z,49.02
2017-06-13T12:16:52.859Z,48.35
2017-06-13T12:17:33.527Z,48.03
2017-06-13T12:18:14.159Z,48.16
2017-06-13T12:18:54.801Z,48.06
2017-06-13T12:19:35.485Z,48.23
2017-06-13T12:20:16.129Z,47.94
2017-06-13T12:20:56.777Z,48.16
2017-06-13T12:21:37.423Z,47.94
2017-06-13T12:22:18.096Z,47.94
2017-06-13T12:22:58.734Z,47.77
2017-06-13T12:23:39.319Z,47.58
2017-06-13T12:24:19.927Z,47.77
2017-06-13T12:25:00.591Z,48.06
2017-06-13T12:25:41.311Z,47.97
2017-06-13T12:26:21.978Z,47.77
2017-06-13T12:27:02.558Z,47.77
2017-06-13T12:27:43.230Z,47.77
2017-06-13T12:28:23.905Z,47.19
2017-06-13T12:29:04.495Z,47.41
2017-06-13T12:29:45.068Z,47.29
2017-06-13T12:30:25.765Z,47.41
2017-06-13T12:31:06.354Z,47.41
2017-06-13T12:31:47.045Z,47.31
2017-06-13T12:32:27.676Z,47.12
2017-06-13T12:33:08.309Z,47.12
2017-06-13T12:33:48.975Z,47.03
2017-06-13T12:34:29.603Z,47.03
2017-06-13T12:35:10.293Z,46.83
2017-06-13T12:35:50.917Z,46.95
2017-06-13T12:36:31.543Z,47.41
2017-06-13T12:37:12.116Z,47.12
2017-06-13T12:37:52.701Z,47.03
2017-06-13T12:38:33.358Z,47.51
2017-06-13T12:39:14.035Z,47.22
2017-06-13T12:39:54.630Z,47.12
2017-06-13T12:40:35.188Z,47.22
2017-06-13T12:41:15.850Z,47.41
2017-06-13T12:41:56.556Z,47.51
2017-06-13T12:42:37.242Z,47.12
2017-06-13T12:43:17.927Z,47.6
2017-06-13T12:43:58.593Z,47.41
2017-06-13T12:44:39.266Z,47.7
2017-06-13T12:45:20.995Z,47.8
2017-06-13T12:46:01.552Z,47.7
2017-06-13T12:46:43.104Z,47.89
2017-06-13T12:47:23.706Z,47.99
2017-06-13T12:48:04.318Z,48.18
2017-06-13T12:48:44.889Z,47.89
2017-06-13T12:49:25.570Z,48.18
2017-06-13T12:50:06.225Z,47.89
2017-06-13T12:50:46.923Z,47.89
2017-06-13T12:51:27.571Z,47.89
2017-06-13T12:52:08.224Z,47.99
2017-06-13T12:52:49.499Z,47.7
2017-06-13T12:53:30.144Z,47.12
2017-06-13T12:54:10.806Z,47.44
2017-06-13T12:54:51.450Z,47.24
2017-06-13T12:55:32.021Z,47.53
2017-06-13T12:56:12.690Z,46.95
2017-06-13T12:56:53.368Z,46.49
2017-06-13T12:57:34.065Z,46.66
2017-06-13T12:58:14.642Z,46.66
2017-06-13T12:58:56.013Z,46.56
2017-06-13T12:59:36.719Z,46.76
2017-06-13T13:00:17.386Z,46.56
2017-06-13T13:00:58.045Z,46.69
2017-06-13T13:01:38.700Z,46.88
2017-06-13T13:02:19.291Z,46.69
2017-06-13T13:02:59.929Z,46.59
2017-06-13T13:03:40.582Z,46.56
2017-06-13T13:04:22.100Z,46.76
2017-06-13T13:05:02.722Z,46.66
2017-06-13T13:05:43.400Z,47.24
2017-06-13T13:06:24.011Z,46.78
2017-06-13T13:07:04.679Z,46.95
2017-06-13T13:07:45.311Z,46.76
2017-06-13T13:08:25.974Z,46.76
2017-06-13T13:09:06.614Z,46.56
2017-06-13T13:09:47.281Z,46.56
2017-06-13T13:10:27.955Z,46.56
2017-06-13T13:11:08.627Z,46.83
2017-06-13T13:11:49.314Z,46.55
2017-06-13T13:12:29.923Z,46.55
2017-06-13T13:13:10.533Z,46.55
2017-06-13T13:13:51.132Z,47.22
2017-06-13T13:14:31.717Z,46.55
2017-06-13T13:15:12.285Z,46.35
2017-06-13T13:15:52.950Z,46.55
2017-06-13T13:16:33.585Z,46.56
2017-06-13T13:17:14.152Z,46.08
2017-06-13T13:17:54.804Z,46.47
2017-06-13T13:18:35.431Z,46.56
2017-06-13T13:19:16.004Z,46.66
2017-06-13T13:19:56.674Z,46.37
2017-06-13T13:20:37.544Z,46.95
2017-06-13T13:21:18.165Z,46.66
2017-06-13T13:21:58.750Z,46.76
2017-06-13T13:22:39.349Z,46.76
2017-06-13T13:23:19.928Z,46.66
2017-06-13T13:24:00.603Z,46.76
2017-06-13T13:24:41.205Z,46.66
2017-06-13T13:25:21.774Z,46.56
2017-06-13T13:26:02.435Z,46.76
2017-06-13T13:26:43.102Z,47.14
2017-06-13T13:27:23.742Z,45.92
2017-06-13T13:28:04.409Z,46.78
2017-06-13T13:28:45.061Z,46.3
2017-06-13T13:29:25.711Z,46.01
2017-06-13T13:30:06.364Z,46.2
2017-06-13T13:30:47.016Z,45.75
2017-06-13T13:31:27.869Z,45.45
2017-06-13T13:32:08.645Z,45.55
2017-06-13T13:32:49.311Z,45.45
2017-06-13T13:33:29.943Z,45.45
2017-06-13T13:34:10.622Z,45.55
2017-06-13T13:34:51.240Z,45.36
2017-06-13T13:35:31.872Z,45.26
2017-06-13T13:36:12.472Z,45.36
2017-06-13T13:36:54.086Z,45.07
2017-06-13T13:37:34.677Z,45.55
2017-06-13T13:38:15.322Z,45.55
2017-06-13T13:38:55.918Z,45.65
2017-06-13T13:39:36.504Z,45.84
2017-06-13T13:40:17.115Z,46.11
2017-06-13T13:40:57.707Z,46.11
2017-06-13T13:41:38.940Z,46.11
2017-06-13T13:42:19.628Z,46.69
2017-06-13T13:43:00.199Z,46.86
2017-06-13T13:43:40.861Z,46.76
2017-06-13T13:44:21.546Z,46.76
2017-06-13T13:45:02.243Z,47.14
2017-06-13T13:45:42.813Z,47.44
2017-06-13T13:46:23.467Z,47.34
2017-06-13T13:47:04.121Z,47.72
2017-06-13T13:47:44.750Z,47.99
2017-06-13T13:48:25.433Z,48.18
2017-06-13T13:49:06.075Z,48.38
2017-06-13T13:49:46.740Z,48.86
2017-06-13T13:50:27.381Z,49.22
2017-06-13T13:51:07.967Z,48.93
2017-06-13T13:51:48.663Z,49.41
2017-06-13T13:52:29.249Z,49.7
2017-06-13T13:53:09.888Z,49.58
2017-06-13T13:53:50.506Z,49.89
2017-06-13T13:54:31.205Z,49.58
2017-06-13T13:55:11.769Z,50.15
2017-06-13T13:55:52.407Z,50.63
2017-06-13T13:56:33.054Z,50.35
2017-06-13T13:57:13.742Z,50.25
2017-06-13T13:57:54.361Z,50.83
2017-06-13T13:58:35.014Z,51.21
2017-06-13T13:59:15.702Z,51.19
2017-06-13T13:59:56.315Z,51.38
2017-06-13T14:00:36.971Z,51.96
2017-06-13T14:01:17.623Z,51.67
2017-06-13T14:01:58.293Z,52.44
2017-06-13T14:02:38.949Z,52.54
2017-06-13T14:03:19.578Z,52.44
2017-06-13T14:04:00.256Z,52.92
2017-06-13T14:04:40.890Z,52.63
2017-06-13T14:05:21.512Z,52.99
2017-06-13T14:06:02.169Z,52.61
2017-06-13T14:06:42.740Z,53.19
2017-06-13T14:07:23.395Z,53.5
2017-06-13T14:08:04.025Z,53.38
2017-06-13T14:08:44.596Z,53.09
2017-06-13T14:09:25.253Z,53.47
2017-06-13T14:10:05.882Z,53.66
2017-06-13T14:10:46.453Z,53.96
2017-06-13T14:11:27.155Z,54.14
2017-06-13T14:12:07.760Z,53.96
2017-06-13T14:12:48.411Z,54.05
2017-06-13T14:13:29.086Z,53.86
2017-06-13T14:14:09.717Z,54.05
2017-06-13T14:14:50.393Z,53.86
2017-06-13T14:15:31.025Z,53.38
2017-06-13T14:16:11.670Z,53.21
2017-06-13T14:16:52.339Z,53.5
2017-06-13T14:17:34.007Z,52.92
2017-06-13T14:18:14.607Z,52.92
2017-06-13T14:18:55.197Z,52.83
2017-06-13T14:19:35.873Z,52.25
2017-06-13T14:20:16.601Z,52.56
2017-06-13T14:20:57.290Z,52.66
2017-06-13T14:21:39.034Z,51.98
2017-06-13T14:22:19.704Z,52.18
2017-06-13T14:23:00.355Z,52.18
2017-06-13T14:23:41.024Z,51.89
2017-06-13T14:24:21.657Z,51.89
2017-06-13T14:25:02.311Z,51.34
2017-06-13T14:25:42.982Z,51.34
2017-06-13T14:26:23.663Z,51.24
2017-06-13T14:27:04.270Z,50.95
2017-06-13T14:27:44.926Z,50.88
2017-06-13T14:28:25.612Z,50.4
2017-06-13T14:29:06.298Z,50.3
2017-06-13T14:29:47.969Z,50.59
2017-06-13T14:30:28.654Z,50.59
2017-06-13T14:31:11.317Z,50.59
2017-06-13T14:31:51.976Z,50.78
2017-06-13T14:32:34.557Z,50.78
2017-06-13T14:33:15.228Z,50.78
2017-06-13T14:33:55.934Z,50.59
2017-06-13T14:34:36.552Z,50.69
2017-06-13T14:35:17.174Z,50.49
2017-06-13T14:35:58.880Z,50.78
2017-06-13T14:36:39.571Z,50.78
2017-06-13T14:37:20.155Z,50.21
2017-06-13T14:38:00.760Z,50.66
2017-06-13T14:38:41.375Z,51.05
2017-06-13T14:39:22.981Z,51.05
2017-06-13T14:40:03.592Z,51.14
2017-06-13T14:40:44.170Z,51.24
2017-06-13T14:41:24.787Z,51.14
2017-06-13T14:42:05.487Z,51.53
2017-06-13T14:42:46.110Z,51.62
2017-06-13T14:43:27.768Z,52.2
2017-06-13T14:44:08.422Z,51.89
2017-06-13T14:44:50.114Z,52.27
2017-06-13T14:45:30.765Z,52.66
2017-06-13T14:46:11.423Z,52.27
2017-06-13T14:46:54.035Z,52.75
2017-06-13T14:47:34.691Z,53.05
2017-06-13T14:48:15.327Z,53.53
2017-06-13T14:48:56.999Z,53.11
2017-06-13T14:49:37.645Z,53.69
2017-06-13T14:50:20.271Z,54.08
2017-06-13T14:51:00.942Z,54.17
2017-06-13T14:51:52.276Z,54.36
2017-06-13T14:52:32.856Z,54.65
2017-06-13T14:53:13.519Z,55.01
2017-06-13T14:53:54.188Z,54.91
2017-06-13T14:54:34.807Z,55.3
2017-06-13T14:55:16.392Z,55.4
2017-06-13T14:55:57.039Z,55.88
2017-06-13T14:56:38.747Z,55.68
2017-06-13T14:57:19.436Z,55.4
2017-06-13T14:58:00.083Z,55.59
2017-06-13T14:58:40.751Z,55.49
2017-06-13T14:59:21.368Z,55.49
2017-06-13T15:00:02.037Z,56.26
2017-06-13T15:00:42.688Z,56.36
2017-06-13T15:01:23.286Z,56.26
2017-06-13T15:02:03.970Z,56.26
2017-06-13T15:02:44.543Z,55.68
2017-06-13T15:03:25.200Z,55.59
2017-06-13T15:04:05.891Z,55.78
2017-06-13T15:04:46.590Z,56.07
2017-06-13T15:05:27.156Z,55.49
2017-06-13T15:06:07.795Z,55.88
2017-06-13T15:06:48.398Z,55.68
2017-06-13T15:07:28.979Z,55.43
2017-06-13T15:08:09.549Z,54.94
2017-06-13T15:08:50.257Z,54.75
2017-06-13T15:09:30.974Z,54.56
2017-06-13T15:10:11.603Z,54.75
2017-06-13T15:10:52.189Z,53.98